Heat Index [SAI AWOS/ASOS Display]_________FAA Disclaimer: "Not for use in aviation at this time______________" Untitled Document
Auglaize County Neil Armstrong Airport (AXV)
260
03:46
17/10/24
13
20
N/A
29.66
N/A
912
51(F), 11(C)
51(F), 11(C)
46 F
100%
BKN011 BKN050 BKN075
7
Drizzle
N/A
N/A
03:46 zulu Wind 260 at 13 Knots, Gusting 20 Knots, Altimeter 29.66
METAR KAXV 240346Z AUTO 26013G20KT 7SM DZ BKN011 BKN050 BKN075 11/11 A2966 A02
METAR:
FAA Disclaimer--Advisory Use ONLY, not for flight info-- 3/04/2009: Welcome to the Neil Armstong AXV Graphical AWOS Display, if you find this information useful, please call the airport manager at 419-753-2810. New URL for AWOS smartphone display is http://www.saiawos2.com/AXV
INFO:
Wind Direction:
Wind Speed:
Wind Gust:
Wind Variable:
Altimeter:
Dens Alt:
Elev:
Temp:
Dwpt:
Wind Chill
Rel Humidity:
Ceiling:
Visibility:
Prsnt Wea:
PCPN:
Remarks:
How to read the WebPage